createdAt,value
2022-12-31T00:02:13.300Z,5.50
2022-12-31T00:04:40.598Z,8.30
2022-12-31T00:07:07.564Z,5.80
2022-12-31T00:09:34.489Z,6.90
2022-12-31T00:12:01.465Z,5.40
2022-12-31T00:14:28.482Z,5.60
2022-12-31T00:16:55.556Z,7.10
2022-12-31T00:19:22.696Z,6.50
2022-12-31T00:21:49.643Z,4.80
2022-12-31T00:24:16.747Z,6.60
2022-12-31T00:26:43.764Z,5.30
2022-12-31T00:29:11.015Z,6.30
2022-12-31T00:31:39.277Z,5.10
2022-12-31T00:34:07.185Z,6.20
2022-12-31T00:36:37.793Z,4.90
2022-12-31T00:39:07.250Z,7.70
2022-12-31T00:41:34.962Z,5.40
2022-12-31T00:44:02.666Z,5.60
2022-12-31T00:46:29.948Z,5.60
2022-12-31T00:48:57.039Z,5.10
2022-12-31T00:51:27.575Z,5.20
2022-12-31T00:53:56.349Z,5.90
2022-12-31T00:56:26.187Z,6.10
2022-12-31T00:58:53.761Z,4.50
2022-12-31T01:01:41.120Z,8.50
2022-12-31T01:04:15.955Z,6.60
2022-12-31T01:06:44.371Z,5.50
2022-12-31T01:09:13.535Z,6.20
2022-12-31T01:11:42.223Z,5.90
2022-12-31T01:14:16.133Z,5.10
2022-12-31T01:16:53.705Z,4.00
2022-12-31T01:19:24.542Z,5.90
2022-12-31T01:21:52.444Z,7.10
2022-12-31T01:24:20.091Z,7.20
2022-12-31T01:26:47.137Z,5.20
2022-12-31T01:29:14.698Z,4.90
2022-12-31T01:31:42.122Z,5.30
2022-12-31T01:34:09.679Z,4.90
2022-12-31T01:36:38.131Z,5.10
2022-12-31T01:39:07.192Z,5.40
2022-12-31T01:41:40.111Z,4.20
2022-12-31T01:44:13.133Z,5.50
2022-12-31T01:46:49.446Z,5.00
2022-12-31T01:49:39.449Z,4.70
2022-12-31T01:52:13.477Z,4.40
2022-12-31T01:54:52.986Z,5.80
2022-12-31T01:57:21.277Z,4.90
2022-12-31T01:59:48.347Z,5.50
2022-12-31T02:02:16.466Z,6.20
2022-12-31T02:04:43.849Z,4.80
2022-12-31T02:07:11.748Z,5.40
2022-12-31T02:09:41.411Z,5.90
2022-12-31T02:12:09.898Z,4.50
2022-12-31T02:14:48.088Z,5.50
2022-12-31T02:17:58.193Z,5.00
2022-12-31T02:21:05.140Z,5.40
2022-12-31T02:24:01.796Z,4.90
2022-12-31T02:26:45.825Z,3.80
2022-12-31T02:29:34.040Z,4.70
2022-12-31T02:32:07.955Z,5.10
2022-12-31T02:34:40.884Z,4.40
2022-12-31T02:37:12.625Z,5.10
2022-12-31T02:39:44.140Z,4.60
2022-12-31T02:42:11.868Z,4.60
2022-12-31T02:44:41.810Z,3.90
2022-12-31T02:47:08.689Z,4.30
2022-12-31T02:50:12.794Z,4.30
2022-12-31T02:53:07.333Z,4.70
2022-12-31T02:55:37.353Z,5.80
2022-12-31T02:58:45.441Z,4.90
2022-12-31T03:04:33.344Z,5.40
2022-12-31T03:07:05.930Z,5.50
2022-12-31T03:09:33.502Z,4.50
2022-12-31T03:12:28.926Z,4.20
2022-12-31T03:14:56.696Z,4.40
2022-12-31T03:17:23.966Z,4.20
2022-12-31T03:20:09.716Z,4.30
2022-12-31T03:22:43.572Z,4.10
2022-12-31T03:25:33.849Z,4.30
2022-12-31T03:28:14.810Z,4.50
2022-12-31T03:30:45.429Z,4.20
2022-12-31T03:33:13.039Z,4.20
2022-12-31T03:35:55.660Z,4.50
2022-12-31T03:38:22.635Z,3.70
2022-12-31T03:40:52.322Z,4.40
2022-12-31T03:43:20.339Z,4.40
2022-12-31T03:45:51.918Z,4.90
2022-12-31T03:48:20.074Z,4.30
2022-12-31T03:50:47.137Z,3.80
2022-12-31T03:53:15.343Z,3.80
2022-12-31T03:55:42.389Z,4.20
2022-12-31T03:58:09.453Z,4.30
2022-12-31T04:00:36.905Z,4.10
2022-12-31T04:03:05.684Z,4.60
2022-12-31T04:05:33.913Z,4.20
2022-12-31T04:08:00.857Z,4.30
2022-12-31T04:10:28.142Z,4.20
2022-12-31T04:12:55.025Z,4.20
2022-12-31T04:15:22.289Z,4.00
2022-12-31T04:17:49.463Z,5.70
2022-12-31T04:20:16.867Z,4.70
2022-12-31T04:22:44.549Z,4.90
2022-12-31T04:25:13.380Z,3.40
2022-12-31T04:27:42.014Z,4.80
2022-12-31T04:30:10.152Z,4.30
2022-12-31T04:32:37.261Z,4.70
2022-12-31T04:35:04.834Z,4.60
2022-12-31T04:40:17.401Z,4.20
2022-12-31T04:42:45.295Z,4.10
2022-12-31T04:45:12.218Z,4.40
2022-12-31T04:47:39.118Z,4.00
2022-12-31T04:50:07.571Z,4.90
2022-12-31T04:52:38.750Z,5.20
2022-12-31T04:55:08.006Z,4.10
2022-12-31T04:57:35.424Z,4.40
2022-12-31T05:00:02.671Z,5.10
2022-12-31T05:02:30.325Z,4.20
2022-12-31T05:04:57.460Z,5.10
2022-12-31T05:07:24.383Z,4.20
2022-12-31T05:09:51.713Z,4.50
2022-12-31T05:12:19.463Z,4.00
2022-12-31T05:14:46.577Z,4.80
2022-12-31T05:17:13.463Z,4.00
2022-12-31T05:19:40.644Z,4.50
2022-12-31T05:22:25.906Z,4.40
2022-12-31T05:24:52.812Z,4.20
2022-12-31T05:27:19.905Z,4.20
2022-12-31T05:29:47.643Z,3.80
2022-12-31T05:32:14.812Z,5.10
2022-12-31T05:34:42.671Z,4.20
2022-12-31T05:37:10.009Z,4.40
2022-12-31T05:39:36.935Z,4.50
2022-12-31T05:42:04.282Z,4.60
2022-12-31T05:44:31.622Z,4.40
2022-12-31T05:46:59.036Z,4.50
2022-12-31T05:49:26.025Z,4.70
2022-12-31T05:51:53.008Z,5.30
2022-12-31T05:54:20.027Z,5.20
2022-12-31T05:56:47.005Z,3.90
2022-12-31T05:59:14.237Z,4.30
2022-12-31T06:01:41.354Z,4.60
2022-12-31T06:04:08.364Z,5.20
2022-12-31T06:06:35.534Z,3.60
2022-12-31T06:09:02.739Z,4.70
2022-12-31T06:11:30.320Z,5.30
2022-12-31T06:13:58.545Z,5.50
2022-12-31T06:16:26.984Z,3.40
2022-12-31T06:18:54.439Z,3.80
2022-12-31T06:21:22.643Z,5.00
2022-12-31T06:23:49.768Z,3.70
2022-12-31T06:26:16.834Z,4.30
2022-12-31T06:28:43.818Z,4.40
2022-12-31T06:31:13.467Z,4.70
2022-12-31T06:33:40.850Z,4.20
2022-12-31T06:36:12.758Z,4.30
2022-12-31T06:38:41.142Z,4.90
2022-12-31T06:41:10.633Z,3.60
2022-12-31T06:43:38.917Z,3.80
2022-12-31T06:46:08.306Z,4.50
2022-12-31T06:48:35.458Z,4.10
2022-12-31T06:51:16.763Z,4.50
2022-12-31T06:53:45.425Z,4.50
2022-12-31T06:56:17.496Z,3.80
2022-12-31T06:58:44.986Z,4.70
2022-12-31T07:01:15.215Z,4.10
2022-12-31T07:04:20.581Z,4.40
2022-12-31T07:07:13.631Z,3.20
2022-12-31T07:10:29.489Z,4.60
2022-12-31T07:13:27.996Z,4.00
2022-12-31T07:16:03.218Z,5.50
2022-12-31T07:19:11.266Z,3.20
2022-12-31T07:21:40.828Z,4.00
2022-12-31T07:24:09.826Z,4.40
2022-12-31T07:26:57.016Z,5.20
2022-12-31T07:29:42.921Z,3.60
2022-12-31T07:32:39.570Z,3.80
2022-12-31T07:35:10.282Z,5.30
2022-12-31T07:38:06.089Z,4.10
2022-12-31T07:40:39.052Z,4.00
2022-12-31T07:43:25.232Z,3.80
2022-12-31T07:46:01.507Z,4.80
2022-12-31T07:48:29.935Z,4.50
2022-12-31T07:50:58.242Z,4.00
2022-12-31T07:53:26.264Z,5.30
2022-12-31T07:56:00.017Z,3.80
2022-12-31T07:59:08.530Z,3.50
2022-12-31T08:02:02.339Z,3.90
2022-12-31T08:04:47.360Z,3.80
2022-12-31T08:07:36.951Z,4.00
2022-12-31T08:10:27.300Z,4.50
2022-12-31T08:13:02.820Z,4.90
2022-12-31T08:15:30.993Z,5.00
2022-12-31T08:17:58.249Z,5.10
2022-12-31T08:20:26.942Z,5.70
2022-12-31T08:23:03.215Z,5.50
2022-12-31T08:25:52.071Z,4.50
2022-12-31T08:28:33.990Z,4.70
2022-12-31T08:31:07.119Z,4.00
2022-12-31T08:34:00.693Z,6.40
2022-12-31T08:36:38.084Z,5.10
2022-12-31T08:39:16.199Z,4.70
2022-12-31T08:41:49.910Z,5.40
2022-12-31T08:44:41.391Z,4.40
2022-12-31T08:47:26.922Z,3.80
2022-12-31T08:49:56.640Z,6.10
2022-12-31T08:52:26.289Z,5.40
2022-12-31T08:54:53.876Z,4.90
2022-12-31T08:57:29.935Z,5.00
2022-12-31T09:00:16.105Z,5.20
2022-12-31T09:03:03.317Z,5.60
2022-12-31T09:06:06.909Z,5.40
2022-12-31T09:08:50.122Z,5.00
2022-12-31T09:11:28.823Z,3.10
2022-12-31T09:14:13.710Z,4.50
2022-12-31T09:16:59.679Z,4.70
2022-12-31T09:19:28.140Z,4.60
2022-12-31T09:21:55.843Z,6.80
2022-12-31T09:24:23.189Z,4.80
2022-12-31T09:26:53.061Z,5.30
2022-12-31T09:29:32.082Z,3.80
2022-12-31T09:32:11.116Z,6.00
2022-12-31T09:34:56.692Z,4.80
2022-12-31T09:37:52.591Z,4.20
2022-12-31T09:40:28.655Z,3.30
2022-12-31T09:43:14.452Z,11.40
2022-12-31T09:46:03.498Z,4.40
2022-12-31T09:48:55.423Z,3.90
2022-12-31T09:51:32.472Z,7.10
2022-12-31T09:54:20.321Z,5.50
2022-12-31T09:56:59.890Z,12.40
2022-12-31T09:59:57.497Z,6.00
2022-12-31T10:03:02.013Z,6.90
2022-12-31T10:06:00.927Z,5.00
2022-12-31T10:09:05.497Z,5.50
2022-12-31T10:12:03.045Z,6.50
2022-12-31T10:15:07.475Z,6.70
2022-12-31T10:17:51.086Z,5.80
2022-12-31T10:20:41.573Z,5.70
2022-12-31T10:23:47.674Z,6.80
2022-12-31T10:26:37.978Z,8.40
2022-12-31T10:29:58.205Z,4.70
2022-12-31T10:32:41.224Z,6.90
2022-12-31T10:35:21.197Z,7.30
2022-12-31T10:38:20.769Z,5.20
2022-12-31T10:41:06.531Z,10.70
2022-12-31T10:43:46.648Z,6.20
2022-12-31T10:46:23.132Z,5.80
2022-12-31T10:49:12.218Z,5.50
2022-12-31T10:51:57.544Z,3.90
2022-12-31T10:54:43.472Z,6.90
2022-12-31T10:57:42.004Z,6.40
2022-12-31T11:00:21.897Z,5.90
2022-12-31T11:03:02.800Z,4.60
2022-12-31T11:05:33.611Z,5.20
2022-12-31T11:08:03.321Z,6.70
2022-12-31T11:10:48.963Z,4.60
2022-12-31T11:13:40.925Z,4.70
2022-12-31T11:16:38.681Z,7.40
2022-12-31T11:19:27.745Z,5.00
2022-12-31T11:22:09.220Z,5.30
2022-12-31T11:25:04.719Z,5.20
2022-12-31T11:28:05.339Z,8.00
2022-12-31T11:30:58.251Z,7.80
2022-12-31T11:33:50.184Z,4.20
2022-12-31T11:37:05.621Z,5.90
2022-12-31T11:39:38.995Z,7.10
2022-12-31T11:42:21.193Z,5.20
2022-12-31T11:45:00.434Z,7.30
2022-12-31T11:48:28.971Z,6.10
2022-12-31T11:51:10.110Z,7.10
2022-12-31T11:54:14.624Z,8.50
2022-12-31T11:56:52.984Z,8.30
2022-12-31T11:59:21.470Z,21.50
2022-12-31T12:01:48.433Z,36.90
2022-12-31T12:04:18.540Z,39.20
2022-12-31T12:06:46.229Z,34.40
2022-12-31T12:09:30.247Z,31.40
2022-12-31T12:12:06.471Z,26.30
2022-12-31T12:14:37.458Z,27.00
2022-12-31T12:17:15.484Z,31.00
2022-12-31T12:19:46.643Z,30.10
2022-12-31T12:22:26.914Z,19.50
2022-12-31T12:24:56.988Z,17.70
2022-12-31T12:27:27.897Z,13.50
2022-12-31T12:29:56.444Z,17.80
2022-12-31T12:32:26.703Z,22.90
2022-12-31T12:34:54.592Z,28.00
2022-12-31T12:37:24.399Z,40.80
2022-12-31T12:40:18.269Z,34.50
2022-12-31T12:42:49.422Z,33.10
2022-12-31T12:45:19.872Z,30.00
2022-12-31T12:47:49.867Z,26.60
2022-12-31T12:50:26.260Z,30.20
2022-12-31T12:53:29.095Z,22.00
2022-12-31T12:56:30.659Z,22.90
2022-12-31T12:59:13.871Z,26.70
2022-12-31T13:01:46.777Z,24.50
2022-12-31T13:04:34.394Z,22.50
2022-12-31T13:07:28.875Z,21.50
2022-12-31T13:10:08.413Z,20.50
2022-12-31T13:13:23.253Z,26.30
2022-12-31T13:16:19.148Z,20.70
2022-12-31T13:18:55.475Z,21.50
2022-12-31T13:21:45.181Z,21.30
2022-12-31T13:24:29.476Z,17.70
2022-12-31T13:27:08.794Z,18.90
2022-12-31T13:29:37.740Z,17.00
2022-12-31T13:32:08.363Z,21.60
2022-12-31T13:34:40.168Z,19.60
2022-12-31T13:37:22.688Z,19.20
2022-12-31T13:39:54.064Z,19.80
2022-12-31T13:42:34.176Z,15.60
2022-12-31T13:45:24.078Z,17.50
2022-12-31T13:48:05.857Z,15.20
2022-12-31T13:50:48.681Z,18.20
2022-12-31T13:53:38.817Z,18.00
2022-12-31T13:56:19.595Z,15.40
2022-12-31T13:59:00.628Z,16.20
2022-12-31T14:01:34.988Z,13.80
2022-12-31T14:04:08.051Z,14.80
2022-12-31T14:06:34.977Z,13.70
2022-12-31T14:09:05.735Z,14.50
2022-12-31T14:12:14.452Z,13.80
2022-12-31T14:15:35.602Z,15.60
2022-12-31T14:18:05.498Z,17.00
2022-12-31T14:20:52.218Z,12.50
2022-12-31T14:23:24.913Z,16.30
2022-12-31T14:25:57.817Z,12.40
2022-12-31T14:28:46.643Z,15.10
2022-12-31T14:31:20.189Z,14.30
2022-12-31T14:33:55.443Z,11.50
2022-12-31T14:36:43.415Z,13.50
2022-12-31T14:39:33.004Z,14.00
2022-12-31T14:42:33.187Z,13.40
2022-12-31T14:45:18.867Z,10.60
2022-12-31T14:48:26.117Z,9.80
2022-12-31T14:50:53.381Z,13.10
2022-12-31T14:53:51.158Z,9.20
2022-12-31T14:56:31.696Z,10.20
2022-12-31T14:59:01.292Z,13.60
2022-12-31T15:01:29.382Z,10.50
2022-12-31T15:03:58.300Z,9.50
2022-12-31T15:06:45.578Z,8.60
2022-12-31T15:09:48.077Z,12.90
2022-12-31T15:12:25.330Z,11.80
2022-12-31T15:15:09.844Z,7.40
2022-12-31T15:17:58.523Z,11.00
2022-12-31T15:20:46.620Z,8.00
2022-12-31T15:23:21.267Z,11.00
2022-12-31T15:25:54.190Z,9.60
2022-12-31T15:28:40.039Z,12.30
2022-12-31T15:31:21.169Z,12.10
2022-12-31T15:33:56.063Z,9.60
2022-12-31T15:36:26.434Z,15.50
2022-12-31T15:39:25.918Z,11.60
2022-12-31T15:44:55.504Z,10.20
2022-12-31T15:47:37.187Z,12.40
2022-12-31T15:50:08.109Z,8.00
2022-12-31T15:52:43.226Z,8.60
2022-12-31T15:55:24.683Z,10.50
2022-12-31T15:57:53.950Z,10.30
2022-12-31T16:00:23.254Z,6.70
2022-12-31T16:02:54.548Z,8.60
2022-12-31T16:05:27.436Z,7.50
2022-12-31T16:07:56.665Z,10.00
2022-12-31T16:10:32.502Z,10.90
2022-12-31T16:13:00.401Z,10.30
2022-12-31T16:15:33.499Z,9.60
2022-12-31T16:18:06.448Z,9.70
2022-12-31T16:20:34.917Z,8.10
2022-12-31T16:23:03.606Z,9.00
2022-12-31T16:25:33.520Z,10.60
2022-12-31T16:28:02.943Z,8.90
2022-12-31T16:30:32.362Z,9.00
2022-12-31T16:33:02.688Z,9.20
2022-12-31T16:35:32.552Z,11.20
2022-12-31T16:38:10.361Z,10.60
2022-12-31T16:40:38.854Z,11.80
2022-12-31T16:43:30.185Z,8.40
2022-12-31T16:46:06.989Z,8.90
2022-12-31T16:48:34.313Z,10.10
2022-12-31T16:51:01.403Z,8.20
2022-12-31T16:53:30.944Z,7.80
2022-12-31T16:56:11.273Z,10.80
2022-12-31T16:58:45.441Z,10.70
2022-12-31T17:01:19.556Z,8.10
2022-12-31T17:03:52.363Z,9.70
2022-12-31T17:06:21.535Z,12.30
2022-12-31T17:08:59.449Z,8.60
2022-12-31T17:11:35.520Z,9.10
2022-12-31T17:14:08.325Z,10.30
2022-12-31T17:17:02.141Z,10.50
2022-12-31T17:19:45.602Z,9.30
2022-12-31T17:22:32.812Z,8.90
2022-12-31T17:25:27.718Z,8.00
2022-12-31T17:27:56.681Z,10.00
2022-12-31T17:30:35.762Z,8.60
2022-12-31T17:33:22.670Z,9.00
2022-12-31T17:36:12.598Z,8.40
2022-12-31T17:38:39.842Z,8.70
2022-12-31T17:41:08.756Z,8.50
2022-12-31T17:43:37.775Z,8.60
2022-12-31T17:46:16.834Z,9.90
2022-12-31T17:48:46.354Z,8.80
2022-12-31T17:51:13.272Z,7.80
2022-12-31T17:53:40.245Z,8.60
2022-12-31T17:56:14.498Z,7.60
2022-12-31T17:58:49.699Z,7.60
2022-12-31T18:01:20.711Z,8.70
2022-12-31T18:03:51.526Z,9.00
2022-12-31T18:06:21.718Z,8.10
2022-12-31T18:08:49.873Z,10.80
2022-12-31T18:11:24.943Z,8.40
2022-12-31T18:13:54.131Z,8.30
2022-12-31T18:16:21.174Z,7.10
2022-12-31T18:18:48.300Z,8.90
2022-12-31T18:21:25.525Z,8.60
2022-12-31T18:26:22.323Z,6.60
2022-12-31T18:28:50.168Z,10.10
2022-12-31T18:31:21.433Z,11.80
2022-12-31T18:33:48.918Z,7.90
2022-12-31T18:36:18.479Z,7.40
2022-12-31T18:38:46.289Z,9.80
2022-12-31T18:41:27.034Z,7.80
2022-12-31T18:43:55.026Z,10.60
2022-12-31T18:46:24.404Z,7.70
2022-12-31T18:48:51.592Z,6.30
2022-12-31T18:51:26.459Z,8.10
2022-12-31T18:53:58.385Z,10.80
2022-12-31T18:56:25.420Z,6.80
2022-12-31T18:58:52.436Z,12.00
2022-12-31T19:01:31.762Z,9.20
2022-12-31T19:04:04.362Z,9.00
2022-12-31T19:06:31.656Z,9.00
2022-12-31T19:09:00.820Z,6.90
2022-12-31T19:11:28.580Z,6.60
2022-12-31T19:13:55.594Z,8.60
2022-12-31T19:16:22.610Z,9.50
2022-12-31T19:18:50.928Z,9.50
2022-12-31T19:21:20.929Z,8.50
2022-12-31T19:23:48.418Z,10.90
2022-12-31T19:26:18.221Z,10.90
2022-12-31T19:28:46.643Z,8.80
2022-12-31T19:31:14.365Z,11.20
2022-12-31T19:33:43.581Z,10.10
2022-12-31T19:36:20.759Z,7.00
2022-12-31T19:38:47.701Z,13.50
2022-12-31T19:41:20.035Z,8.80
2022-12-31T19:44:40.037Z,10.50
2022-12-31T19:47:08.741Z,14.80
2022-12-31T19:49:36.133Z,11.20
2022-12-31T19:52:03.774Z,8.70
2022-12-31T19:54:30.708Z,11.10
2022-12-31T19:56:57.639Z,10.50
2022-12-31T19:59:24.695Z,10.20
2022-12-31T20:01:51.847Z,10.00
2022-12-31T20:04:21.774Z,13.00
2022-12-31T20:06:49.279Z,12.90
2022-12-31T20:09:17.396Z,11.10
2022-12-31T20:11:44.279Z,8.00
2022-12-31T20:14:12.229Z,9.40
2022-12-31T20:16:39.224Z,7.10
2022-12-31T20:19:07.334Z,6.00
2022-12-31T20:21:34.958Z,6.80
2022-12-31T20:24:01.992Z,6.40
2022-12-31T20:26:28.934Z,10.80
2022-12-31T20:28:55.907Z,8.40
2022-12-31T20:31:27.696Z,8.50
2022-12-31T20:33:55.763Z,6.90
2022-12-31T20:36:23.809Z,9.60
2022-12-31T20:38:52.286Z,7.60
2022-12-31T20:41:22.377Z,10.00
2022-12-31T20:43:51.682Z,9.60
2022-12-31T20:46:22.971Z,10.10
2022-12-31T20:48:51.587Z,11.50
2022-12-31T20:51:22.490Z,7.30
2022-12-31T20:53:52.128Z,8.30
2022-12-31T20:56:19.380Z,7.70
2022-12-31T20:58:46.699Z,8.70
2022-12-31T21:01:15.196Z,7.30
2022-12-31T21:06:32.638Z,7.90
2022-12-31T21:09:01.692Z,8.00
2022-12-31T21:11:47.389Z,7.50
2022-12-31T21:14:14.555Z,7.50
2022-12-31T21:16:41.557Z,8.00
2022-12-31T21:19:12.470Z,7.50
2022-12-31T21:21:39.455Z,9.40
2022-12-31T21:24:06.854Z,8.50
2022-12-31T21:26:34.740Z,7.80
2022-12-31T21:29:01.884Z,6.80
2022-12-31T21:31:28.896Z,10.10
2022-12-31T21:33:56.001Z,6.10
2022-12-31T21:36:23.230Z,10.00
2022-12-31T21:38:50.215Z,6.80
2022-12-31T21:41:35.811Z,9.00
2022-12-31T21:44:03.587Z,10.00
2022-12-31T21:46:30.932Z,7.00
2022-12-31T21:48:59.493Z,8.30
2022-12-31T21:51:27.253Z,6.90
2022-12-31T21:53:54.217Z,8.60
2022-12-31T21:56:22.974Z,8.20
2022-12-31T21:59:14.456Z,7.80
2022-12-31T22:02:00.916Z,6.30
2022-12-31T22:05:01.973Z,6.30
2022-12-31T22:07:15.436Z,7.20
2022-12-31T22:09:43.899Z,6.60
2022-12-31T22:12:11.567Z,6.70
2022-12-31T22:14:38.470Z,7.60
2022-12-31T22:17:05.446Z,8.10
2022-12-31T22:19:43.482Z,8.30
2022-12-31T22:22:20.169Z,6.10
2022-12-31T22:24:47.112Z,7.10
2022-12-31T22:27:29.541Z,9.80
2022-12-31T22:29:57.267Z,5.20
2022-12-31T22:32:24.263Z,7.20
2022-12-31T22:34:51.165Z,8.00
2022-12-31T22:37:46.550Z,6.20
2022-12-31T22:40:05.788Z,6.20
2022-12-31T22:42:32.721Z,6.00
2022-12-31T22:44:59.778Z,6.00
2022-12-31T22:47:26.798Z,6.90
2022-12-31T22:49:54.380Z,6.40
2022-12-31T22:52:22.632Z,8.10
2022-12-31T22:54:49.508Z,6.30
2022-12-31T22:57:20.212Z,6.50
2022-12-31T22:59:47.680Z,5.60
2022-12-31T23:02:14.721Z,6.50
2022-12-31T23:04:41.854Z,5.90
2022-12-31T23:07:09.025Z,6.50
2022-12-31T23:09:54.320Z,6.80
2022-12-31T23:12:21.336Z,7.10
2022-12-31T23:15:06.735Z,5.30
2022-12-31T23:17:52.790Z,8.20
2022-12-31T23:20:41.662Z,7.00
2022-12-31T23:23:14.471Z,8.00
2022-12-31T23:25:44.316Z,5.30
2022-12-31T23:28:14.326Z,5.30
2022-12-31T23:30:42.376Z,6.60
2022-12-31T23:33:15.270Z,8.10
2022-12-31T23:35:42.340Z,6.40
2022-12-31T23:38:09.836Z,7.90
2022-12-31T23:40:36.757Z,7.40
2022-12-31T23:43:06.330Z,7.40
2022-12-31T23:45:34.392Z,5.60
2022-12-31T23:48:01.784Z,5.80
2022-12-31T23:50:29.047Z,6.80
2022-12-31T23:52:55.967Z,9.20
2022-12-31T23:55:22.988Z,6.80
2022-12-31T23:57:50.250Z,6.40
